Time;durP1;ratioP1;P1;durP2;ratioP2;P2;SDS_P1;SDS_P2;PMS_P1;PMS_P2;Temp;Humidity;BMP_temperature;BMP_pressure;BME280_temperature;BME280_humidity;BME280_pressure;Samples;Min_cycle;Max_cycle;Signal;HPM_P1;HPM_P2
2022/08/30 00:02:46;;;;;;;5.47;2.30;;;;;;;24.23;60.78;99744.28;4491343;31;33427;-78
2022/08/30 00:05:17;;;;;;;5.00;2.50;;;;;;;24.36;60.32;99749.59;4492826;31;33629;-78
2022/08/30 00:07:46;;;;;;;4.60;1.92;;;;;;;24.42;60.11;99746.50;4495952;31;32031;-77
2022/08/30 00:10:19;;;;;;;4.12;2.20;;;;;;;24.27;60.70;99746.59;4489603;31;34884;-79
2022/08/30 00:12:48;;;;;;;3.75;1.60;;;;;;;24.29;60.68;99743.88;4475563;32;34337;-79
2022/08/30 00:15:19;;;;;;;3.47;1.87;;;;;;;24.31;60.59;99743.72;4475597;32;33991;-78
2022/08/30 00:17:48;;;;;;;4.65;2.45;;;;;;;24.21;60.88;99743.53;4481343;32;34796;-78
2022/08/30 00:20:19;;;;;;;5.62;2.75;;;;;;;24.11;61.07;99745.97;4479882;31;34787;-78
2022/08/30 00:22:48;;;;;;;4.90;2.35;;;;;;;24.24;60.71;99743.34;4475653;32;33781;-78
2022/08/30 00:25:19;;;;;;;6.00;2.60;;;;;;;24.25;60.62;99743.22;4475767;32;33156;-78
2022/08/30 00:27:47;;;;;;;3.72;1.85;;;;;;;24.28;60.45;99744.78;4475758;32;33098;-78
2022/08/30 00:30:18;;;;;;;4.18;2.35;;;;;;;24.33;60.21;99741.84;4481273;32;34479;-79
2022/08/30 00:32:47;;;;;;;4.05;1.83;;;;;;;24.30;60.42;99747.34;4475679;32;32778;-79
2022/08/30 00:35:19;;;;;;;5.70;2.75;;;;;;;24.39;60.01;99752.03;4476855;32;33000;-80
2022/08/30 00:37:49;;;;;;;4.55;2.10;;;;;;;24.34;59.98;99741.75;4480311;31;33621;-77
2022/08/30 00:40:19;;;;;;;4.63;2.30;;;;;;;24.34;59.87;99746.19;4491442;31;33038;-78
2022/08/30 00:42:55;;;;;;;4.80;2.37;;;;;;;24.26;60.19;99746.72;4496787;31;34306;-77
2022/08/30 00:45:30;;;;;;;4.07;2.17;;;;;;;24.26;60.10;99758.19;4492721;31;32953;-79
2022/08/30 00:47:59;;;;;;;4.32;1.92;;;;;;;24.21;60.07;99749.69;4493331;31;34728;-80
2022/08/30 00:50:31;;;;;;;3.97;2.20;;;;;;;24.28;59.90;99747.44;4493644;31;33487;-78
2022/08/30 00:53:02;;;;;;;5.53;2.40;;;;;;;24.33;59.51;99747.13;4499404;31;33989;-79
2022/08/30 00:55:32;;;;;;;3.78;1.95;;;;;;;24.13;60.05;99746.72;4485188;31;33352;-78
2022/08/30 00:58:03;;;;;;;4.03;2.30;;;;;;;24.18;59.69;99749.87;4477970;32;34976;-78
2022/08/30 01:00:34;;;;;;;5.18;2.37;;;;;;;24.17;59.69;99744.72;4478063;32;33575;-78
2022/08/30 01:03:04;;;;;;;5.18;2.08;;;;;;;24.00;60.05;99740.56;4477647;32;33746;-77
2022/08/30 01:05:33;;;;;;;4.78;2.72;;;;;;;24.22;59.51;99742.59;4483231;32;32624;-78
2022/08/30 01:08:06;;;;;;;4.68;2.00;;;;;;;24.24;59.54;99744.19;4477446;32;34639;-78
2022/08/30 01:10:35;;;;;;;4.70;2.40;;;;;;;24.23;59.38;99737.16;4477694;32;33697;-79
2022/08/30 01:13:04;;;;;;;3.92;1.92;;;;;;;24.14;59.46;99737.81;4477958;31;33686;-77
2022/08/30 01:15:34;;;;;;;5.57;2.45;;;;;;;24.33;58.72;99741.84;4483221;32;33197;-80
2022/08/30 01:18:04;;;;;;;4.55;2.28;;;;;;;24.30;58.81;99739.41;4477546;32;33193;-77
2022/08/30 01:20:39;;;;;;;5.00;2.30;;;;;;;24.32;58.78;99741.00;4477579;32;34544;-79
2022/08/30 01:23:12;;;;;;;4.35;2.42;;;;;;;24.32;58.81;99737.50;4477519;32;33037;-78
2022/08/30 01:25:43;;;;;;;4.82;2.30;;;;;;;24.20;59.07;99737.38;4477528;31;33123;-76
2022/08/30 01:28:14;;;;;;;5.82;2.00;;;;;;;24.39;58.36;99736.13;4482929;32;33797;-80
2022/08/30 01:30:43;;;;;;;4.55;2.70;;;;;;;24.30;58.48;99731.44;4493113;31;34093;-79
2022/08/30 01:33:13;;;;;;;5.12;2.45;;;;;;;24.16;58.82;99733.28;4493444;31;34189;-79
2022/08/30 01:35:47;;;;;;;6.60;2.85;;;;;;;24.26;58.22;99733.47;4493209;31;33781;-79
2022/08/30 01:38:18;;;;;;;4.18;2.17;;;;;;;24.22;58.51;99732.81;4494028;31;33937;-79
2022/08/30 01:40:47;;;;;;;4.32;2.12;;;;;;;24.19;58.37;99733.03;4497666;31;33031;-79
2022/08/30 01:43:17;;;;;;;5.03;2.62;;;;;;;24.12;58.62;99730.94;4492942;31;33804;-79
2022/08/30 01:45:46;;;;;;;9.25;2.45;;;;;;;24.09;58.67;99734.63;4489816;31;33729;-79
2022/08/30 01:48:14;;;;;;;4.95;2.00;;;;;;;24.03;58.76;99729.75;4476949;32;34043;-78
2022/08/30 01:50:43;;;;;;;5.30;2.58;;;;;;;24.12;58.32;99728.28;4482993;32;33979;-79
2022/08/30 01:53:12;;;;;;;3.95;2.22;;;;;;;24.13;58.33;99730.81;4477538;32;33593;-77
2022/08/30 01:55:43;;;;;;;4.72;2.37;;;;;;;24.10;58.31;99731.03;4477400;32;33713;-78
2022/08/30 01:58:11;;;;;;;4.78;2.50;;;;;;;24.00;58.72;99729.97;4477052;32;33326;-79
2022/08/30 02:00:41;;;;;;;4.50;2.45;;;;;;;24.09;58.22;99723.16;4482956;32;34054;-79
2022/08/30 02:03:10;;;;;;;5.07;2.30;;;;;;;24.02;58.40;99720.97;4480094;31;34087;-77
2022/08/30 02:05:39;;;;;;;2.87;1.62;;;;;;;24.02;58.40;99722.75;4477182;32;33444;-78
2022/08/30 02:08:07;;;;;;;5.47;2.87;;;;;;;23.88;58.87;99721.03;4477304;32;33835;-78
2022/08/30 02:10:36;;;;;;;4.90;2.42;;;;;;;23.94;58.60;99714.47;4477307;32;33505;-78
2022/08/30 02:13:06;;;;;;;3.83;2.08;;;;;;;23.82;58.95;99722.31;4482807;32;34096;-78
2022/08/30 02:15:35;;;;;;;5.85;2.55;;;;;;;23.88;58.72;99726.34;4477059;32;34072;-77
2022/08/30 02:18:10;;;;;;;4.60;2.35;;;;;;;23.77;58.96;99723.56;4476841;32;33540;-78
2022/08/30 02:20:39;;;;;;;4.12;2.17;;;;;;;23.67;59.40;99718.00;4477744;31;33520;-78
2022/08/30 02:23:08;;;;;;;5.50;2.65;;;;;;;23.80;58.98;99713.63;4482741;32;34369;-78
2022/08/30 02:25:37;;;;;;;5.65;2.20;;;;;;;23.81;59.03;99711.81;4478527;32;33000;-78
2022/08/30 02:28:08;;;;;;;5.40;2.55;;;;;;;23.76;58.88;99722.72;4477706;32;34484;-78
2022/08/30 02:30:37;;;;;;;;;;;;;;;23.72;59.26;99717.69;4477593;32;33759;-78
2022/08/30 02:33:05;;;;;;;4.72;2.20;;;;;;;23.66;59.33;99718.97;4477474;32;33549;-79
2022/08/30 02:35:34;;;;;;;4.47;2.55;;;;;;;23.64;59.46;99723.50;4482429;32;32213;-77
2022/08/30 02:38:04;;;;;;;5.15;2.35;;;;;;;23.48;60.02;99728.97;4487591;31;33661;-80
2022/08/30 02:40:33;;;;;;;4.60;2.42;;;;;;;23.48;60.22;99725.47;4491563;31;34367;-78
2022/08/30 02:43:02;;;;;;;4.20;1.98;;;;;;;23.22;61.18;99725.41;4490548;31;33704;-80
2022/08/30 02:45:34;;;;;;;;;;;;;;;23.28;61.18;99721.50;4498487;31;33928;-78
2022/08/30 02:48:03;;;;;;;3.87;2.05;;;;;;;23.38;60.91;99723.44;4495282;31;34015;-78
2022/08/30 02:50:32;;;;;;;6.18;2.75;;;;;;;23.24;61.43;99726.13;4492702;31;34529;-80
2022/08/30 02:53:00;;;;;;;3.95;2.20;;;;;;;23.12;61.61;99730.44;4492560;31;33688;-77
2022/08/30 02:55:29;;;;;;;3.92;2.40;;;;;;;23.21;61.58;99726.34;4477679;31;34068;-79
2022/08/30 02:57:58;;;;;;;6.65;2.95;;;;;;;23.08;61.98;99731.59;4482195;32;34742;-79
2022/08/30 03:00:27;;;;;;;4.03;2.00;;;;;;;23.05;62.18;99726.50;4477110;32;33624;-77
2022/08/30 03:02:57;;;;;;;6.50;3.05;;;;;;;23.05;62.14;99721.22;4477256;32;34284;-77
2022/08/30 03:05:26;;;;;;;3.80;2.42;;;;;;;22.94;62.56;99719.19;4477016;32;32998;-79
2022/08/30 03:07:55;;;;;;;4.35;2.50;;;;;;;22.73;63.12;99718.75;4481430;32;33933;-78
2022/08/30 03:10:24;;;;;;;6.20;3.12;;;;;;;22.92;62.50;99726.37;4476763;31;33498;-79
2022/08/30 03:12:53;;;;;;;5.28;2.75;;;;;;;22.82;62.61;99725.28;4476632;32;34076;-77
2022/08/30 03:15:24;;;;;;;5.05;2.75;;;;;;;22.80;62.71;99717.44;4478603;32;33888;-77
2022/08/30 03:17:54;;;;;;;4.55;2.20;;;;;;;22.93;62.21;99728.09;4481801;32;33376;-79
2022/08/30 03:20:24;;;;;;;6.87;2.55;;;;;;;22.90;62.30;99727.44;4481355;32;34543;-76
2022/08/30 03:22:53;;;;;;;5.60;2.85;;;;;;;22.74;62.84;99738.16;4476540;32;34208;-78
2022/08/30 03:25:22;;;;;;;5.25;2.47;;;;;;;22.79;62.48;99734.25;4476360;32;33727;-78
2022/08/30 03:27:55;;;;;;;4.75;2.58;;;;;;;22.83;62.30;99740.19;4476424;31;34493;-78
2022/08/30 03:30:24;;;;;;;5.75;2.58;;;;;;;22.87;62.21;99744.34;4482031;32;34001;-77
2022/08/30 03:32:53;;;;;;;5.53;2.67;;;;;;;22.77;62.51;99737.94;4476860;32;33385;-79
2022/08/30 03:35:21;;;;;;;5.35;2.67;;;;;;;22.69;62.89;99750.78;4476048;32;33895;-77
2022/08/30 03:37:52;;;;;;;4.65;2.53;;;;;;;22.70;62.63;99750.69;4485397;31;33360;-79
2022/08/30 03:40:24;;;;;;;4.32;2.58;;;;;;;22.76;62.53;99752.09;4497461;31;33376;-78
2022/08/30 03:42:53;;;;;;;5.13;2.27;;;;;;;22.71;62.60;99752.41;4493965;31;35017;-77
2022/08/30 03:45:22;;;;;;;6.25;2.90;;;;;;;22.60;62.89;99751.38;4485518;31;32510;-78
2022/08/30 03:47:51;;;;;;;5.45;2.90;;;;;;;22.28;64.10;99762.13;4484905;31;34550;-77
2022/08/30 03:50:20;;;;;;;5.65;2.85;;;;;;;22.43;63.50;99755.91;4491841;31;33840;-77
2022/08/30 03:52:48;;;;;;;8.07;2.70;;;;;;;22.49;63.40;99760.81;4490899;31;34128;-77
2022/08/30 03:55:19;;;;;;;5.12;3.05;;;;;;;22.43;63.58;99757.72;4476365;32;33449;-78
2022/08/30 03:57:48;;;;;;;;;;;;;;;22.43;63.38;99761.19;4476573;32;34634;-77
2022/08/30 04:00:19;;;;;;;5.87;2.83;;;;;;;22.57;63.13;99765.63;4474756;32;32634;-80
2022/08/30 04:02:48;;;;;;;6.07;2.87;;;;;;;22.44;63.44;99768.16;4482101;31;33470;-77
2022/08/30 04:05:17;;;;;;;5.62;3.12;;;;;;;22.44;63.51;99762.03;4475976;32;32919;-79
2022/08/30 04:07:46;;;;;;;6.10;2.53;;;;;;;22.34;63.82;99767.03;4475780;32;33543;-78
2022/08/30 04:10:15;;;;;;;5.50;2.85;;;;;;;22.53;62.91;99766.75;4476015;32;33988;-77
2022/08/30 04:12:45;;;;;;;4.03;2.42;;;;;;;22.57;62.71;99765.63;4475738;32;33367;-78
2022/08/30 04:15:21;;;;;;;4.70;2.58;;;;;;;22.40;63.36;99771.09;4481658;32;33325;-79
2022/08/30 04:17:49;;;;;;;5.03;2.50;;;;;;;22.53;63.19;99783.47;4475741;32;33497;-77
2022/08/30 04:20:19;;;;;;;5.07;2.53;;;;;;;22.58;62.83;99781.38;4477362;31;33612;-78
2022/08/30 04:22:47;;;;;;;5.82;2.95;;;;;;;22.49;63.15;99787.22;4478080;32;33451;-79
2022/08/30 04:25:16;;;;;;;4.15;2.28;;;;;;;22.63;62.87;99790.84;4483070;32;33658;-77
2022/08/30 04:27:46;;;;;;;5.18;2.62;;;;;;;22.47;63.45;99793.56;4477964;32;34446;-77
2022/08/30 04:30:16;;;;;;;5.22;2.58;;;;;;;22.61;62.97;99796.22;4481304;31;33670;-78
2022/08/30 04:32:46;;;;;;;4.17;2.50;;;;;;;22.69;62.79;99798.38;4486469;31;33358;-79
2022/08/30 04:35:14;;;;;;;4.40;2.53;;;;;;;22.65;63.06;99807.47;4477535;32;33176;-78
2022/08/30 04:37:43;;;;;;;4.57;2.80;;;;;;;22.69;63.09;99814.25;4490999;31;34445;-77
2022/08/30 04:40:12;;;;;;;5.82;2.87;;;;;;;22.73;62.59;99813.13;4493499;31;33679;-77
2022/08/30 04:42:43;;;;;;;6.40;3.12;;;;;;;22.69;63.09;99822.19;4487325;31;33845;-78
2022/08/30 04:45:15;;;;;;;8.88;3.78;;;;;;;22.64;63.18;99826.91;4477750;32;33375;-78
2022/08/30 04:47:44;;;;;;;5.15;2.70;;;;;;;22.89;62.11;99828.91;4483307;32;33552;-80
2022/08/30 04:50:15;;;;;;;5.37;3.03;;;;;;;22.89;62.05;99824.47;4478546;31;33883;-77
2022/08/30 04:52:44;;;;;;;;;;;;;;;23.03;62.03;99823.66;4491153;31;33237;-78
2022/08/30 04:55:13;;;;;;;4.65;2.78;;;;;;;23.02;62.25;99831.66;4478191;32;33214;-76
2022/08/30 04:57:47;;;;;;;6.97;2.90;;;;;;;23.17;61.82;99833.34;4486387;31;33455;-78
2022/08/30 05:00:19;;;;;;;5.35;2.70;;;;;;;23.10;62.04;99834.66;4488072;31;35264;-77
2022/08/30 05:02:48;;;;;;;6.07;3.08;;;;;;;23.17;61.35;99834.22;4477186;32;32904;-77
2022/08/30 05:08:04;;;;;;;6.80;3.33;;;;;;;23.49;60.51;99833.09;4481053;31;33718;-78
2022/08/30 05:10:34;;;;;;;5.15;2.75;;;;;;;23.53;60.65;99834.59;4484969;31;33734;-77
2022/08/30 05:13:02;;;;;;;6.22;3.05;;;;;;;23.70;60.28;99838.78;4499105;31;33417;-77
2022/08/30 05:15:32;;;;;;;5.03;2.83;;;;;;;23.66;60.51;99842.59;4493559;31;33403;-78
2022/08/30 05:18:01;;;;;;;5.35;2.80;;;;;;;23.51;61.13;99840.00;4493356;31;34219;-77
2022/08/30 05:20:30;;;;;;;6.22;3.50;;;;;;;23.73;60.73;99843.91;4493248;31;33709;-77
2022/08/30 05:22:59;;;;;;;5.65;3.00;;;;;;;23.73;59.56;99846.56;4499100;31;33731;-77
2022/08/30 05:25:31;;;;;;;7.07;3.20;;;;;;;23.80;59.73;99846.09;4493103;31;33077;-79
2022/08/30 05:28:00;;;;;;;6.00;3.35;;;;;;;23.90;59.84;99840.19;4481581;31;33587;-79
2022/08/30 05:30:34;;;;;;;6.30;2.70;;;;;;;23.83;60.33;99845.03;4477638;32;34386;-77
2022/08/30 05:33:02;;;;;;;5.50;2.58;;;;;;;23.81;60.70;99847.78;4477549;32;34238;-77
2022/08/30 05:35:31;;;;;;;4.55;2.62;;;;;;;23.69;60.09;99840.59;4483482;32;34823;-76
2022/08/30 05:38:00;;;;;;;6.97;3.37;;;;;;;23.69;60.41;99851.19;4487480;31;33780;-77
2022/08/30 05:40:30;;;;;;;5.72;2.80;;;;;;;23.72;60.18;99848.34;4493006;31;33286;-77
2022/08/30 05:42:59;;;;;;;6.50;2.87;;;;;;;23.79;58.56;99844.38;4485358;31;33471;-79
2022/08/30 05:45:28;;;;;;;6.45;3.00;;;;;;;24.04;58.13;99834.78;4494132;31;33317;-78
2022/08/30 05:47:58;;;;;;;6.10;3.22;;;;;;;24.05;57.37;99839.16;4477251;32;33506;-79
2022/08/30 05:50:27;;;;;;;5.72;3.00;;;;;;;23.52;58.74;99851.44;4479738;31;33053;-78
2022/08/30 05:52:56;;;;;;;6.07;2.87;;;;;;;23.59;59.09;99853.59;4492940;31;34301;-78
2022/08/30 05:55:25;;;;;;;6.10;2.72;;;;;;;24.00;57.98;99841.25;4498391;31;32716;-79
2022/08/30 05:57:56;;;;;;;5.53;2.65;;;;;;;23.99;58.15;99847.50;4487257;31;33851;-78
2022/08/30 06:00:25;;;;;;;4.72;2.55;;;;;;;23.87;57.11;99857.09;4477588;31;34924;-78
2022/08/30 06:02:54;;;;;;;4.55;2.28;;;;;;;24.03;55.94;99843.69;4477049;32;34502;-78
2022/08/30 06:05:24;;;;;;;5.62;2.30;;;;;;;24.22;54.03;99844.16;4477062;32;33356;-79
2022/08/30 06:07:53;;;;;;;4.95;2.40;;;;;;;24.12;54.39;99843.09;4483042;32;33001;-79
2022/08/30 06:10:22;;;;;;;5.53;2.65;;;;;;;24.07;54.00;99845.22;4477175;32;34334;-77
2022/08/30 06:12:50;;;;;;;3.53;2.17;;;;;;;24.37;52.61;99846.72;4477019;32;33683;-79
2022/08/30 06:15:19;;;;;;;5.68;2.85;;;;;;;24.44;52.60;99856.81;4477238;32;34078;-79
2022/08/30 06:17:48;;;;;;;5.20;2.65;;;;;;;24.55;52.26;99856.13;4482783;31;34297;-80
2022/08/30 06:20:17;;;;;;;5.68;2.67;;;;;;;24.59;51.78;99859.41;4483626;31;33563;-79
2022/08/30 06:22:47;;;;;;;5.32;2.72;;;;;;;24.54;51.72;99859.72;4478247;31;33344;-80
2022/08/30 06:25:17;;;;;;;7.30;3.30;;;;;;;24.31;51.94;99857.75;4477753;32;32528;-80
2022/08/30 06:27:46;;;;;;;5.35;2.58;;;;;;;24.43;51.12;99859.59;4477308;32;33902;-78
2022/08/30 06:30:14;;;;;;;5.05;3.33;;;;;;;24.76;50.64;99863.53;4482539;32;34063;-79
2022/08/30 06:32:46;;;;;;;3.05;1.90;;;;;;;24.88;49.45;99860.03;4479267;31;34239;-79
2022/08/30 06:35:15;;;;;;;4.80;2.28;;;;;;;24.98;49.60;99860.22;4486324;31;33625;-78
2022/08/30 06:37:43;;;;;;;4.12;2.30;;;;;;;24.97;49.46;99861.22;4484850;31;33650;-80
2022/08/30 06:40:20;;;;;;;7.68;2.08;;;;;;;25.16;48.85;99863.41;4490249;31;33665;-79
2022/08/30 06:42:50;;;;;;;3.35;1.80;;;;;;;25.10;49.14;99864.69;4483411;31;34325;-78
2022/08/30 06:45:21;;;;;;;7.15;2.75;;;;;;;25.40;47.04;99860.84;4484158;31;33367;-78
2022/08/30 06:47:50;;;;;;;4.20;2.10;;;;;;;25.09;47.38;99860.34;4483515;31;33428;-80
2022/08/30 06:50:19;;;;;;;4.20;2.17;;;;;;;25.11;47.74;99856.63;4482879;31;33931;-77
2022/08/30 06:52:49;;;;;;;5.80;3.03;;;;;;;25.19;48.24;99865.88;4482407;31;34530;-78
2022/08/30 06:55:19;;;;;;;4.18;2.37;;;;;;;25.12;48.48;99858.28;4482765;31;33294;-79
2022/08/30 06:57:47;;;;;;;8.25;2.70;;;;;;;25.11;48.11;99861.09;4484928;31;34222;-78
2022/08/30 07:00:17;;;;;;;4.25;2.28;;;;;;;25.09;48.42;99868.31;4486862;31;33819;-77
2022/08/30 07:02:46;;;;;;;5.22;2.12;;;;;;;25.25;48.20;99868.06;4489141;31;33399;-79
2022/08/30 07:05:16;;;;;;;3.95;2.40;;;;;;;25.36;47.36;99870.81;4480845;31;32991;-77
2022/08/30 07:07:46;;;;;;;5.05;2.30;;;;;;;25.60;46.97;99873.50;4483223;31;33643;-77
2022/08/30 07:10:16;;;;;;;5.90;2.10;;;;;;;25.45;46.64;99878.13;4483265;31;33882;-79
2022/08/30 07:12:46;;;;;;;3.70;2.10;;;;;;;25.60;46.45;99872.66;4476175;32;33508;-78
2022/08/30 07:15:15;;;;;;;4.05;2.08;;;;;;;25.76;46.60;99875.91;4481677;32;32469;-79
2022/08/30 07:20:30;;;;;;;6.18;2.08;;;;;;;25.81;46.14;99881.72;4484360;31;33569;-78
2022/08/30 07:23:09;;;;;;;5.12;2.08;;;;;;;26.14;45.29;99882.84;4483495;31;33578;-79
2022/08/30 07:25:38;;;;;;;4.30;2.33;;;;;;;26.46;44.88;99883.09;4489800;31;33052;-79
2022/08/30 07:28:09;;;;;;;6.90;2.75;;;;;;;26.23;44.47;99874.19;4482322;32;34805;-77
2022/08/30 07:30:38;;;;;;;3.50;1.80;;;;;;;26.00;45.09;99880.38;4476461;32;33496;-78
2022/08/30 07:33:08;;;;;;;4.10;2.10;;;;;;;26.42;44.74;99880.78;4476504;32;34550;-78
2022/08/30 07:35:37;;;;;;;4.45;1.80;;;;;;;26.57;44.35;99883.12;4478560;31;33434;-79
2022/08/30 07:38:06;;;;;;;4.18;1.90;;;;;;;26.99;42.09;99887.91;4487710;31;34622;-80
2022/08/30 07:40:37;;;;;;;4.97;1.60;;;;;;;27.02;42.22;99890.34;4484033;31;33633;-80
2022/08/30 07:43:08;;;;;;;5.50;1.75;;;;;;;27.08;41.90;99889.84;4480659;31;34837;-78
2022/08/30 07:45:38;;;;;;;3.05;1.73;;;;;;;26.92;42.25;99892.88;4476317;31;32484;-79
2022/08/30 07:48:07;;;;;;;2.97;1.85;;;;;;;27.04;42.96;99888.41;4476021;32;33592;-77
2022/08/30 07:50:35;;;;;;;5.55;2.55;;;;;;;26.85;42.13;99888.16;4484997;31;33885;-78
2022/08/30 07:53:04;;;;;;;5.87;2.20;;;;;;;27.12;41.55;99887.81;4492167;31;33273;-79
2022/08/30 07:55:38;;;;;;;4.50;2.08;;;;;;;27.58;40.63;99897.47;4487467;31;32644;-77
2022/08/30 07:58:08;;;;;;;3.70;1.87;;;;;;;27.29;41.32;99886.50;4478482;31;34514;-78
2022/08/30 08:00:37;;;;;;;2.83;1.37;;;;;;;27.63;41.00;99888.13;4492537;31;33603;-80
2022/08/30 08:03:07;;;;;;;4.97;2.33;;;;;;;27.64;40.78;99892.50;4493124;31;33486;-77
2022/08/30 08:05:39;;;;;;;3.30;1.67;;;;;;;28.03;38.60;99887.56;4485539;31;33443;-78
2022/08/30 08:08:09;;;;;;;4.10;2.10;;;;;;;27.83;39.29;99888.34;4477164;32;33839;-77
2022/08/30 08:10:39;;;;;;;2.78;1.40;;;;;;;27.63;40.59;99884.63;4477783;32;33810;-77
2022/08/30 08:13:09;;;;;;;;;;;;;;;27.86;38.83;99891.63;4490733;31;33774;-78
2022/08/30 08:15:38;;;;;;;4.68;1.75;;;;;;;28.21;39.53;99890.50;4485147;31;32921;-79
2022/08/30 08:18:07;;;;;;;6.07;2.40;;;;;;;28.25;38.16;99885.78;4477173;32;33590;-77
2022/08/30 08:20:36;;;;;;;4.22;2.05;;;;;;;27.77;39.85;99891.50;4477814;32;33922;-78
2022/08/30 08:23:05;;;;;;;3.70;1.83;;;;;;;28.36;37.60;99892.84;4483223;32;33273;-78
2022/08/30 08:25:34;;;;;;;4.00;1.73;;;;;;;28.15;39.57;99896.38;4477652;32;32964;-77
2022/08/30 08:28:03;;;;;;;4.25;1.87;;;;;;;28.39;39.32;99889.91;4477779;31;32312;-78
2022/08/30 08:30:34;;;;;;;3.85;1.73;;;;;;;28.25;38.59;99896.44;4477907;32;33994;-78
2022/08/30 08:33:04;;;;;;;5.07;1.85;;;;;;;28.13;38.63;99900.97;4478680;32;34223;-78
2022/08/30 08:35:33;;;;;;;3.33;1.48;;;;;;;28.13;39.86;99905.47;4483115;32;33293;-79
2022/08/30 08:38:02;;;;;;;3.45;1.42;;;;;;;28.41;39.57;99891.47;4480678;31;33545;-77
2022/08/30 08:40:34;;;;;;;2.72;1.30;;;;;;;28.33;39.99;99893.13;4477143;32;34003;-80
2022/08/30 08:43:05;;;;;;;4.15;1.40;;;;;;;28.14;38.94;99897.31;4479332;32;33673;-79
2022/08/30 08:45:42;;;;;;;2.08;1.20;;;;;;;28.24;38.72;99895.56;4483520;32;33444;-80
2022/08/30 08:48:16;;;;;;;2.78;1.50;;;;;;;28.16;39.58;99897.19;4477319;32;34623;-78
2022/08/30 08:53:35;;;;;;;3.30;1.62;;;;;;;28.24;39.89;99900.06;4487312;31;34350;-77
2022/08/30 08:56:20;;;;;;;2.70;1.62;;;;;;;28.25;38.02;99897.28;4485197;31;34020;-78
2022/08/30 08:58:51;;;;;;;3.75;1.55;;;;;;;28.22;39.21;99888.66;4483464;31;35178;-78
2022/08/30 09:01:23;;;;;;;3.15;1.85;;;;;;;28.06;39.23;99895.28;4483369;32;33588;-79
2022/08/30 09:03:52;;;;;;;3.83;1.85;;;;;;;27.97;39.14;99893.38;4482457;31;34790;-79
2022/08/30 09:06:40;;;;;;;3.65;1.52;;;;;;;27.89;39.35;99882.53;4487050;31;33029;-77
2022/08/30 09:09:13;;;;;;;3.08;1.62;;;;;;;28.02;40.25;99890.34;4485071;31;33667;-78
2022/08/30 09:11:42;;;;;;;5.70;2.08;;;;;;;28.01;39.12;99889.50;4479819;31;33597;-77
2022/08/30 09:14:14;;;;;;;7.87;2.75;;;;;;;28.17;38.11;99891.72;4490004;31;34316;-78
2022/08/30 09:16:52;;;;;;;2.67;1.33;;;;;;;28.16;39.00;99886.53;4487007;31;33985;-78
2022/08/30 09:19:29;;;;;;;3.15;1.62;;;;;;;28.13;38.81;99881.47;4486792;31;33885;-77
2022/08/30 09:22:05;;;;;;;4.35;1.85;;;;;;;28.30;38.52;99872.88;4484807;31;34365;-78
2022/08/30 09:24:39;;;;;;;3.80;1.80;;;;;;;28.40;39.11;99871.13;4482932;31;33808;-79
2022/08/30 09:27:22;;;;;;;2.87;1.58;;;;;;;28.49;39.88;99867.72;4497135;31;33709;-77
2022/08/30 09:29:54;;;;;;;4.10;1.60;;;;;;;28.54;38.13;99869.13;4480083;31;32127;-78
2022/08/30 09:32:28;;;;;;;3.33;1.50;;;;;;;28.64;37.50;99864.72;4485271;31;33669;-78
2022/08/30 09:34:57;;;;;;;4.97;1.62;;;;;;;28.62;38.66;99866.66;4481500;31;33414;-78
2022/08/30 09:37:34;;;;;;;4.85;1.62;;;;;;;28.46;38.74;99861.78;4483906;31;32983;-79
2022/08/30 09:40:10;;;;;;;4.22;2.03;;;;;;;28.14;38.25;99861.81;4498414;31;32456;-78
2022/08/30 09:42:40;;;;;;;3.55;1.62;;;;;;;27.91;38.62;99859.25;4483582;31;34568;-78
2022/08/30 09:45:20;;;;;;;3.55;1.87;;;;;;;27.65;39.30;99856.87;4482593;31;34742;-78
2022/08/30 09:47:50;;;;;;;3.28;1.90;;;;;;;28.05;39.33;99858.06;4492998;31;32989;-77
2022/08/30 09:50:21;;;;;;;4.10;1.83;;;;;;;27.79;39.61;99858.41;4491805;31;36714;-80
2022/08/30 09:52:57;;;;;;;3.90;2.00;;;;;;;28.20;38.39;99847.97;4498742;31;33756;-77
2022/08/30 09:55:37;;;;;;;4.22;2.00;;;;;;;28.39;37.90;99850.75;4492356;31;33355;-77
2022/08/30 09:58:11;;;;;;;4.57;2.08;;;;;;;28.68;36.98;99844.75;4493492;31;33794;-78
2022/08/30 10:00:43;;;;;;;4.20;1.67;;;;;;;28.93;36.14;99838.97;4493081;31;34233;-77
2022/08/30 10:03:22;;;;;;;3.33;1.98;;;;;;;28.95;36.27;99844.19;4486980;31;34511;-77
2022/08/30 10:06:18;;;;;;;3.78;1.85;;;;;;;29.01;37.96;99840.13;4498841;31;33634;-78
2022/08/30 10:08:58;;;;;;;4.15;1.77;;;;;;;28.71;38.17;99833.84;4488633;31;33850;-79
2022/08/30 10:11:33;;;;;;;2.95;1.45;;;;;;;28.50;37.92;99829.34;4477823;32;33893;-79
2022/08/30 10:14:24;;;;;;;4.50;2.25;;;;;;;28.88;37.22;99832.38;4477226;32;33635;-79
2022/08/30 10:16:59;;;;;;;4.82;1.90;;;;;;;28.89;37.23;99831.38;4476104;32;33644;-79
2022/08/30 10:19:41;;;;;;;4.28;1.90;;;;;;;28.50;38.11;99836.53;4477295;32;33554;-77
2022/08/30 10:22:12;;;;;;;;;;;;;;;28.39;38.65;99833.87;4483205;32;33979;-79
2022/08/30 10:24:42;;;;;;;;;;;;;;;28.44;39.29;99827.19;4477599;32;34051;-79
2022/08/30 10:27:14;;;;;;;5.00;1.98;;;;;;;28.44;38.22;99832.53;4477862;32;32933;-79
2022/08/30 10:29:47;;;;;;;4.07;2.20;;;;;;;28.84;38.27;99825.59;4488740;31;33703;-80
2022/08/30 10:32:20;;;;;;;3.83;1.77;;;;;;;29.02;38.73;99821.31;4492812;31;33476;-77
2022/08/30 10:34:54;;;;;;;4.47;2.05;;;;;;;29.23;38.08;99825.75;4498509;31;34443;-77
2022/08/30 10:37:25;;;;;;;5.15;2.15;;;;;;;29.06;37.21;99819.19;4492588;31;33630;-78
2022/08/30 10:41:11;;;;;;;4.18;2.20;;;;;;;29.21;38.35;99817.03;4492509;31;33756;-78
2022/08/30 10:42:51;;;;;;;3.90;1.83;;;;;;;29.58;38.27;99817.25;4493003;31;33644;-76
2022/08/30 10:45:20;;;;;;;4.53;1.40;;;;;;;29.77;37.49;99813.78;4492780;31;33543;-77
2022/08/30 10:47:57;;;;;;;3.08;1.67;;;;;;;29.84;36.96;99806.00;4497966;31;34188;-79
2022/08/30 10:50:35;;;;;;;3.95;1.45;;;;;;;29.87;37.01;99809.25;4494085;31;33235;-80
2022/08/30 10:53:17;;;;;;;3.53;1.70;;;;;;;29.97;37.07;99804.75;4492560;31;34718;-80
2022/08/30 10:55:50;;;;;;;2.92;1.70;;;;;;;30.15;35.73;99798.66;4492701;31;33693;-78
2022/08/30 10:58:19;;;;;;;4.45;1.73;;;;;;;30.00;35.80;99806.28;4477545;31;34251;-77
2022/08/30 11:00:58;;;;;;;3.55;1.62;;;;;;;29.64;36.71;99791.78;4482521;32;33893;-79
2022/08/30 11:03:59;;;;;;;7.12;2.00;;;;;;;30.07;36.21;99791.34;4482817;32;33291;-78
2022/08/30 11:06:34;;;;;;;4.47;2.03;;;;;;;30.35;36.73;99795.00;4476855;32;35036;-78
2022/08/30 11:09:20;;;;;;;3.53;1.95;;;;;;;30.08;35.46;99790.34;4476940;32;33909;-78
2022/08/30 11:12:02;;;;;;;4.32;2.12;;;;;;;30.34;35.71;99795.13;4476972;32;34087;-77
2022/08/30 11:14:30;;;;;;;4.07;1.90;;;;;;;30.59;34.97;99791.84;4476627;32;33636;-77
2022/08/30 11:17:00;;;;;;;3.53;1.85;;;;;;;30.28;35.14;99788.53;4479544;32;34562;-79
2022/08/30 11:19:37;;;;;;;4.65;2.55;;;;;;;29.77;35.87;99785.19;4482057;32;33205;-78
2022/08/30 11:22:16;;;;;;;3.33;1.62;;;;;;;30.37;35.38;99784.12;4476331;32;33166;-77
2022/08/30 11:25:04;;;;;;;4.65;2.17;;;;;;;30.16;35.86;99777.12;4476575;32;33676;-80
2022/08/30 11:27:47;;;;;;;4.33;1.63;;;;;;;30.38;37.27;99772.44;4476946;32;33493;-78
2022/08/30 11:30:50;;;;;;;3.95;1.90;;;;;;;30.30;35.34;99769.62;4476601;32;34097;-80
2022/08/30 11:33:35;;;;;;;3.67;1.45;;;;;;;30.33;35.21;99772.06;4482634;31;33677;-77
2022/08/30 11:36:05;;;;;;;4.53;2.03;;;;;;;30.11;34.44;99771.38;4496849;31;33605;-77
2022/08/30 11:39:03;;;;;;;4.28;2.00;;;;;;;30.33;35.00;99758.66;4481874;31;33528;-78
2022/08/30 11:41:37;;;;;;;3.95;1.65;;;;;;;30.35;35.75;99762.88;4482548;31;33814;-79
2022/08/30 11:44:30;;;;;;;4.72;1.90;;;;;;;30.64;35.19;99764.63;4485803;31;32938;-78
2022/08/30 11:46:59;;;;;;;3.67;1.75;;;;;;;30.62;35.38;99769.28;4487818;31;83747;-80
2022/08/30 11:49:45;;;;;;;;;;;;;;;30.48;35.65;99754.53;4491872;31;33528;-78
2022/08/30 11:52:25;;;;;;;3.50;1.73;;;;;;;30.73;35.82;99760.19;4481615;31;33557;-78
2022/08/30 11:55:24;;;;;;;3.10;1.60;;;;;;;30.83;35.95;99752.97;4481425;32;33138;-77
2022/08/30 11:57:58;;;;;;;3.95;1.83;;;;;;;30.94;34.46;99749.25;4473957;31;33308;-78
2022/08/30 12:00:35;;;;;;;4.85;2.70;;;;;;;31.18;34.19;99743.34;4489743;31;33994;-77
2022/08/30 12:03:05;;;;;;;4.15;2.00;;;;;;;31.24;33.57;99735.53;4491503;31;34304;-77
2022/08/30 12:05:56;;;;;;;2.75;1.20;;;;;;;31.36;32.66;99735.28;4492275;31;32510;-78